Terminal Aerodrome Forecast
Issued by NWS Albany, NY

Home | Current Version | Previous Version | Text Only | Print | Product List | Glossary On
Versions: 1 2 3 4 5 6 7 8 9 10 11 12 13 14 15 16 17 18 19 20 21 22 23 24
000
FTUS41 KALY 301100
TAFPOU
TAF
KPOU 301132Z 3012/3112 00000KT P6SM BKN080
      TEMPO 3012/3013 4SM BR
     FM301400 29006KT P6SM OVC060
     FM301800 31007KT P6SM BKN060
     FM302300 34004KT P6SM SCT060
     FM310400 00000KT P6SM SKC=

USA.gov is the U.S. government's official web portal to all federal, state and local government web resources and services.